Time;durP1;ratioP1;P1;durP2;ratioP2;P2;SDS_P1;SDS_P2;PMS_P1;PMS_P2;Temp;Humidity;BMP_temperature;BMP_pressure;BME280_temperature;BME280_humidity;BME280_pressure;Samples;Min_cycle;Max_cycle;Signal;HPM_P1;HPM_P2
2023/05/01 00:01:41;;;;;;;;;;;10.90;71.60;;;;;;5014078;28;20375;-87
2023/05/01 00:04:06;;;;;;;;;;;10.90;70.60;;;;;;4988435;28;19921;-87
2023/05/01 00:06:34;;;;;;;;;;;10.80;71.10;;;;;;4995352;28;20519;-88
2023/05/01 00:09:15;;;;;;;;;;;10.70;72.00;;;;;;4996051;28;19910;-87
2023/05/01 00:11:40;;;;;;;;;;;10.80;71.80;;;;;;4995781;28;19913;-87
2023/05/01 00:14:22;;;;;;;;;;;10.70;72.10;;;;;;4998634;28;19921;-88
2023/05/01 00:16:54;;;;;;;;;;;10.70;71.50;;;;;;4996878;28;19925;-88
2023/05/01 00:19:28;;;;;;;;;;;10.60;71.70;;;;;;4996360;28;20511;-87
2023/05/01 00:21:54;;;;;;;;;;;10.60;72.60;;;;;;4995909;28;20008;-87
2023/05/01 00:27:37;;;;;;;;;;;10.60;72.40;;;;;;4995059;28;19956;-88
2023/05/01 00:30:31;;;;;;;;;;;;;;;;;;;;;
2023/05/01 00:33:09;;;;;;;;;;;10.60;72.20;;;;;;5007381;28;19917;-87
2023/05/01 00:35:47;;;;;;;;;;;10.50;72.10;;;;;;4989768;28;19953;-87
2023/05/01 00:38:42;;;;;;;;;;;;;;;;;;;;;
2023/05/01 00:41:26;;;;;;;;;;;10.50;72.90;;;;;;5013482;28;20390;-87
2023/05/01 00:47:19;;;;;;;;;;;10.40;72.40;;;;;;4971414;28;20315;-87
2023/05/01 00:50:08;;;;;;;;;;;10.40;72.90;;;;;;4994207;28;20392;-87
2023/05/01 00:52:40;;;;;;;;;;;10.30;72.60;;;;;;4988144;28;19914;-88
2023/05/01 00:55:31;;;;;;;;;;;10.20;73.50;;;;;;4979368;28;19922;-87
2023/05/01 01:01:45;;;;;;;;;;;10.20;73.40;;;;;;4996473;28;19909;-87
2023/05/01 01:04:22;;;;;;;;;;;10.20;73.80;;;;;;4995571;28;19961;-87
2023/05/01 01:10:23;;;;;;;;;;;10.10;74.00;;;;;;4932494;29;19982;-87
2023/05/01 01:13:16;;;;;;;;;;;10.10;74.10;;;;;;5001031;28;19918;-87
2023/05/01 01:16:14;;;;;;;;;;;10.00;74.60;;;;;;4995492;28;19910;-87
2023/05/01 01:18:52;;;;;;;;;;;10.00;75.00;;;;;;5046786;23;19929;-90
2023/05/01 01:21:22;;;;;;;;;;;9.90;74.90;;;;;;4997634;28;19920;-90
2023/05/01 01:23:50;;;;;;;;;;;9.90;74.90;;;;;;5024402;28;20467;-89
2023/05/01 01:26:35;;;;;;;;;;;9.90;75.20;;;;;;5009592;28;19968;-87
2023/05/01 01:29:09;;;;;;;;;;;9.80;75.50;;;;;;4989240;28;19914;-87
2023/05/01 01:31:50;;;;;;;;;;;9.70;75.50;;;;;;5005756;28;19918;-89
2023/05/01 01:34:21;;;;;;;;;;;9.60;75.90;;;;;;4986763;28;19969;-89
2023/05/01 01:36:50;;;;;;;;;;;9.70;76.10;;;;;;4989317;28;19976;-89
2023/05/01 01:39:25;;;;;;;;;;;9.60;75.60;;;;;;4992937;28;19956;-88
2023/05/01 01:41:52;;;;;;;;;;;9.60;76.60;;;;;;4986373;28;20300;-89
2023/05/01 01:44:20;;;;;;;;;;;9.60;76.50;;;;;;4988716;28;19914;-88
2023/05/01 01:46:46;;;;;;;;;;;9.50;76.90;;;;;;4991622;28;19914;-88
2023/05/01 01:49:15;;;;;;;;;;;9.50;77.20;;;;;;4989907;28;19924;-88
2023/05/01 01:51:41;;;;;;;;;;;9.40;77.20;;;;;;4994082;28;19910;-88
2023/05/01 01:54:08;;;;;;;;;;;9.40;77.30;;;;;;5009735;28;19929;-88
2023/05/01 01:56:35;;;;;;;;;;;9.30;77.50;;;;;;4999234;28;19937;-88
2023/05/01 01:59:01;;;;;;;;;;;9.30;77.70;;;;;;4988920;28;19929;-88
2023/05/01 02:01:27;;;;;;;;;;;9.30;78.00;;;;;;4986430;28;20444;-89
2023/05/01 02:03:54;;;;;;;;;;;9.30;77.90;;;;;;4993987;28;19910;-88
2023/05/01 02:06:20;;;;;;;;;;;9.30;78.00;;;;;;4994537;28;19909;-88
2023/05/01 02:08:47;;;;;;;;;;;9.20;78.00;;;;;;4993335;28;19914;-88
2023/05/01 02:11:14;;;;;;;;;;;9.30;77.80;;;;;;4986254;28;20432;-88
2023/05/01 02:13:41;;;;;;;;;;;9.30;77.80;;;;;;4985520;28;19913;-88
2023/05/01 02:16:07;;;;;;;;;;;9.30;77.90;;;;;;4994142;28;19916;-88
2023/05/01 02:18:33;;;;;;;;;;;9.30;77.40;;;;;;5007212;28;19918;-88
2023/05/01 02:20:59;;;;;;;;;;;9.20;77.90;;;;;;4999988;28;19910;-88
2023/05/01 02:23:26;;;;;;;;;;;9.10;77.90;;;;;;5008528;28;20017;-88
2023/05/01 02:25:52;;;;;;;;;;;9.20;77.70;;;;;;5013986;28;19910;-88
2023/05/01 02:28:21;;;;;;;;;;;9.20;77.90;;;;;;5013861;28;19913;-88
2023/05/01 02:30:47;;;;;;;;;;;9.10;78.30;;;;;;4986166;28;19910;-89
2023/05/01 02:33:12;;;;;;;;;;;9.10;78.20;;;;;;5007763;28;19921;-88
2023/05/01 02:35:39;;;;;;;;;;;9.10;78.30;;;;;;5008075;28;20277;-88
2023/05/01 02:38:05;;;;;;;;;;;9.10;78.50;;;;;;5006518;28;20359;-88
2023/05/01 02:40:31;;;;;;;;;;;9.00;78.40;;;;;;4984911;28;19993;-89
2023/05/01 02:42:58;;;;;;;;;;;8.90;78.50;;;;;;4992929;28;20368;-88
2023/05/01 02:45:24;;;;;;;;;;;8.90;78.50;;;;;;5007980;28;19910;-89
2023/05/01 02:47:51;;;;;;;;;;;8.90;79.10;;;;;;5006338;28;19936;-88
2023/05/01 02:50:18;;;;;;;;;;;8.80;79.10;;;;;;4999068;28;20279;-88
2023/05/01 02:52:43;;;;;;;;;;;9.00;78.60;;;;;;5006828;28;20421;-89
2023/05/01 02:55:09;;;;;;;;;;;9.00;78.20;;;;;;5008453;28;19917;-88
2023/05/01 02:57:34;;;;;;;;;;;9.00;78.50;;;;;;5011009;28;20270;-88
2023/05/01 03:00:00;;;;;;;;;;;8.90;78.80;;;;;;4988101;28;20356;-89
2023/05/01 03:02:25;;;;;;;;;;;8.80;78.80;;;;;;5010821;28;19910;-88
2023/05/01 03:04:51;;;;;;;;;;;8.80;79.20;;;;;;5011044;28;20390;-88
2023/05/01 03:07:16;;;;;;;;;;;8.80;79.10;;;;;;4995935;28;19909;-89
2023/05/01 03:09:42;;;;;;;;;;;8.80;79.10;;;;;;4988314;28;19929;-88
2023/05/01 03:12:07;;;;;;;;;;;8.80;79.30;;;;;;4993376;28;19914;-88
2023/05/01 03:14:33;;;;;;;;;;;8.80;79.20;;;;;;4989500;28;20102;-88
2023/05/01 03:16:59;;;;;;;;;;;8.80;79.40;;;;;;4995051;28;20008;-88
2023/05/01 03:19:24;;;;;;;;;;;8.80;79.50;;;;;;5010059;28;20295;-88
2023/05/01 03:21:50;;;;;;;;;;;8.90;79.10;;;;;;4995234;28;20009;-88
2023/05/01 03:24:15;;;;;;;;;;;8.90;78.70;;;;;;4976387;28;19921;-88
2023/05/01 03:26:41;;;;;;;;;;;8.90;78.40;;;;;;4990903;28;19975;-88
2023/05/01 03:29:07;;;;;;;;;;;8.80;79.30;;;;;;4984938;28;19917;-88
2023/05/01 03:31:32;;;;;;;;;;;8.80;79.50;;;;;;4987784;28;20311;-88
2023/05/01 03:33:58;;;;;;;;;;;8.80;79.50;;;;;;4995325;28;19980;-88
2023/05/01 03:36:24;;;;;;;;;;;8.80;79.80;;;;;;4995997;28;20213;-88
2023/05/01 03:38:49;;;;;;;;;;;8.90;79.40;;;;;;4995665;28;19992;-88
2023/05/01 03:41:15;;;;;;;;;;;9.00;79.40;;;;;;4986076;28;19981;-88
2023/05/01 03:43:40;;;;;;;;;;;9.00;79.10;;;;;;4991896;28;20367;-88
2023/05/01 03:46:06;;;;;;;;;;;9.00;79.00;;;;;;4976339;28;19916;-88
2023/05/01 03:48:31;;;;;;;;;;;9.10;78.80;;;;;;5004909;28;19921;-88
2023/05/01 03:50:57;;;;;;;;;;;9.10;78.50;;;;;;4994517;28;19933;-88
2023/05/01 03:53:23;;;;;;;;;;;9.10;79.00;;;;;;4994908;28;19913;-88
2023/05/01 03:55:48;;;;;;;;;;;9.20;78.60;;;;;;4993791;28;19960;-88
2023/05/01 03:58:14;;;;;;;;;;;9.20;78.40;;;;;;4993666;28;19957;-88
2023/05/01 04:00:40;;;;;;;;;;;9.20;78.50;;;;;;4987414;28;20389;-87
2023/05/01 04:03:06;;;;;;;;;;;9.10;78.70;;;;;;4975525;28;19949;-88
2023/05/01 04:05:31;;;;;;;;;;;9.20;78.30;;;;;;4975073;28;19911;-88
2023/05/01 04:07:57;;;;;;;;;;;9.10;78.60;;;;;;4975650;28;19930;-87
2023/05/01 04:10:22;;;;;;;;;;;9.10;78.40;;;;;;4991033;28;19914;-88
2023/05/01 04:12:48;;;;;;;;;;;9.10;78.60;;;;;;4983190;28;19968;-87
2023/05/01 04:15:13;;;;;;;;;;;9.10;78.60;;;;;;4990663;28;20001;-87
2023/05/01 04:17:39;;;;;;;;;;;9.10;78.60;;;;;;4997695;28;20334;-88
2023/05/01 04:20:05;;;;;;;;;;;9.10;78.60;;;;;;4984099;28;19919;-89
2023/05/01 04:22:31;;;;;;;;;;;9.10;78.60;;;;;;4987927;28;20426;-88
2023/05/01 04:24:57;;;;;;;;;;;9.10;78.60;;;;;;4994493;28;19914;-88
2023/05/01 04:27:22;;;;;;;;;;;9.10;79.00;;;;;;4993649;28;19964;-88
2023/05/01 04:29:48;;;;;;;;;;;9.10;78.40;;;;;;4993525;28;19914;-85
2023/05/01 04:32:13;;;;;;;;;;;9.10;78.80;;;;;;4991081;28;20420;-88
2023/05/01 04:34:39;;;;;;;;;;;9.10;78.60;;;;;;4974707;28;19925;-87
2023/05/01 04:37:07;;;;;;;;;;;9.10;78.60;;;;;;4975004;28;19916;-88
2023/05/01 04:39:33;;;;;;;;;;;9.10;78.60;;;;;;4999348;28;20391;-89
2023/05/01 04:41:58;;;;;;;;;;;9.10;78.30;;;;;;4988973;28;19914;-87
2023/05/01 04:44:24;;;;;;;;;;;9.10;78.40;;;;;;4988875;28;20306;-88
2023/05/01 04:46:50;;;;;;;;;;;9.20;78.10;;;;;;5006945;28;19906;-87
2023/05/01 04:49:15;;;;;;;;;;;9.30;77.30;;;;;;4996512;28;20311;-88
2023/05/01 04:51:41;;;;;;;;;;;9.30;77.20;;;;;;4989722;28;19984;-89
2023/05/01 04:54:06;;;;;;;;;;;9.20;77.40;;;;;;4974954;28;20005;-88
2023/05/01 04:56:32;;;;;;;;;;;9.30;77.60;;;;;;4989347;28;19910;-89
2023/05/01 04:58:57;;;;;;;;;;;9.40;77.60;;;;;;4981633;28;19914;-88
2023/05/01 05:01:23;;;;;;;;;;;9.40;77.70;;;;;;4983302;28;20399;-87
2023/05/01 05:04:00;;;;;;;;;;;9.40;77.80;;;;;;4976252;28;19969;-89
2023/05/01 05:06:25;;;;;;;;;;;9.40;77.90;;;;;;4975426;28;19910;-87
2023/05/01 05:08:51;;;;;;;;;;;9.50;78.10;;;;;;4980264;28;20013;-88
2023/05/01 05:11:17;;;;;;;;;;;9.50;78.00;;;;;;4984349;28;19910;-88
2023/05/01 05:13:43;;;;;;;;;;;9.50;78.30;;;;;;4982122;28;19914;-88
2023/05/01 05:16:09;;;;;;;;;;;9.50;78.50;;;;;;4974062;28;20331;-88
2023/05/01 05:18:34;;;;;;;;;;;9.60;78.00;;;;;;4975709;28;19925;-88
2023/05/01 05:21:04;;;;;;;;;;;9.60;78.00;;;;;;5000634;28;19957;-88
2023/05/01 05:23:30;;;;;;;;;;;9.60;77.90;;;;;;4993387;28;20414;-88
2023/05/01 05:25:56;;;;;;;;;;;9.60;78.20;;;;;;5008267;28;19909;-86
2023/05/01 05:28:22;;;;;;;;;;;9.60;78.20;;;;;;5007735;28;19910;-88
2023/05/01 05:30:48;;;;;;;;;;;9.60;78.10;;;;;;5001174;28;19910;-86
2023/05/01 05:33:13;;;;;;;;;;;9.70;78.10;;;;;;4974000;28;19915;-88
2023/05/01 05:35:39;;;;;;;;;;;9.70;77.90;;;;;;4973985;28;19930;-88
2023/05/01 05:38:05;;;;;;;;;;;9.80;77.40;;;;;;4988538;28;19917;-87
2023/05/01 05:40:31;;;;;;;;;;;9.80;77.50;;;;;;4986786;28;19914;-87
2023/05/01 05:42:56;;;;;;;;;;;9.70;77.60;;;;;;4988755;28;19909;-86
2023/05/01 05:45:22;;;;;;;;;;;9.70;77.40;;;;;;5007891;28;19921;-87
2023/05/01 05:47:48;;;;;;;;;;;9.60;77.60;;;;;;5006853;28;19910;-88
2023/05/01 05:50:13;;;;;;;;;;;9.70;76.80;;;;;;4984994;28;19911;-88
2023/05/01 05:52:39;;;;;;;;;;;9.70;76.20;;;;;;5007559;28;20506;-88
2023/05/01 05:55:05;;;;;;;;;;;9.80;76.10;;;;;;4993100;28;20281;-88
2023/05/01 05:57:30;;;;;;;;;;;9.80;75.50;;;;;;5007817;28;19936;-88
2023/05/01 05:59:56;;;;;;;;;;;9.90;76.10;;;;;;4976423;28;19914;-87
2023/05/01 06:02:21;;;;;;;;;;;10.10;75.60;;;;;;4992167;28;19984;-88
2023/05/01 06:04:47;;;;;;;;;;;10.00;76.20;;;;;;4972651;28;19962;-88
2023/05/01 06:07:12;;;;;;;;;;;10.20;75.20;;;;;;4973293;28;19956;-88
2023/05/01 06:09:38;;;;;;;;;;;10.30;74.30;;;;;;4982605;28;19918;-88
2023/05/01 06:12:04;;;;;;;;;;;10.30;74.90;;;;;;4988936;28;19917;-87
2023/05/01 06:14:30;;;;;;;;;;;10.50;73.40;;;;;;4985526;28;19921;-88
2023/05/01 06:16:55;;;;;;;;;;;10.60;72.90;;;;;;4990838;28;19913;-87
2023/05/01 06:19:21;;;;;;;;;;;10.90;73.60;;;;;;5007339;28;19920;-87
2023/05/01 06:21:46;;;;;;;;;;;10.80;74.00;;;;;;4992439;28;19996;-88
2023/05/01 06:24:12;;;;;;;;;;;10.90;74.10;;;;;;4988012;28;19986;-87
2023/05/01 06:26:37;;;;;;;;;;;11.00;74.90;;;;;;4972505;28;19918;-88
2023/05/01 06:29:03;;;;;;;;;;;11.00;74.60;;;;;;4998156;28;19956;-87
2023/05/01 06:31:28;;;;;;;;;;;11.00;74.90;;;;;;5000356;28;19910;-88
2023/05/01 06:33:54;;;;;;;;;;;11.10;75.10;;;;;;4992920;28;20004;-87
2023/05/01 06:36:19;;;;;;;;;;;11.30;74.80;;;;;;4992482;28;19916;-88
2023/05/01 06:38:47;;;;;;;;;;;11.30;75.20;;;;;;4990230;28;19921;-88
2023/05/01 06:41:13;;;;;;;;;;;11.30;75.50;;;;;;4984278;28;19911;-86
2023/05/01 06:43:39;;;;;;;;;;;11.30;75.70;;;;;;5007095;28;19913;-87
2023/05/01 06:46:04;;;;;;;;;;;11.40;76.00;;;;;;4992347;28;19928;-88
2023/05/01 06:48:30;;;;;;;;;;;11.50;76.20;;;;;;4991279;28;19972;-89
2023/05/01 06:50:55;;;;;;;;;;;11.60;75.80;;;;;;4999341;28;19910;-88
2023/05/01 06:53:21;;;;;;;;;;;11.60;75.90;;;;;;4992074;28;19920;-88
2023/05/01 06:55:46;;;;;;;;;;;11.70;75.70;;;;;;5007767;28;19914;-88
2023/05/01 06:58:12;;;;;;;;;;;11.80;75.70;;;;;;5006846;28;19910;-88
2023/05/01 07:00:37;;;;;;;;;;;11.80;75.70;;;;;;4986502;28;20376;-88
2023/05/01 07:03:03;;;;;;;;;;;11.90;76.20;;;;;;4987804;28;19964;-87
2023/05/01 07:05:29;;;;;;;;;;;11.90;76.40;;;;;;4972614;28;19910;-88
2023/05/01 07:07:54;;;;;;;;;;;12.10;76.20;;;;;;4982955;28;19913;-88
2023/05/01 07:10:20;;;;;;;;;;;12.10;76.50;;;;;;4984852;28;19920;-89
2023/05/01 07:12:46;;;;;;;;;;;12.10;75.00;;;;;;5000309;28;20249;-89
2023/05/01 07:15:14;;;;;;;;;;;12.20;73.20;;;;;;4991397;28;19910;-89
2023/05/01 07:20:07;;;;;;;;;;;12.20;73.20;;;;;;5043910;28;19929;-82
2023/05/01 07:22:33;;;;;;;;;;;12.40;73.10;;;;;;5043923;28;19992;-83
2023/05/01 07:25:00;;;;;;;;;;;12.70;71.60;;;;;;5035780;28;19900;-82
2023/05/01 07:27:26;;;;;;;;;;;12.70;69.80;;;;;;5036957;28;19931;-82
2023/05/01 07:29:52;;;;;;;;;;;12.60;70.30;;;;;;5046704;28;20313;-82
2023/05/01 07:32:17;;;;;;;;;;;12.70;70.80;;;;;;5050387;28;19910;-82
2023/05/01 07:34:43;;;;;;;;;;;12.80;70.60;;;;;;5049358;28;19917;-82
2023/05/01 07:37:08;;;;;;;;;;;12.90;70.90;;;;;;5044367;28;19971;-81
2023/05/01 07:39:34;;;;;;;;;;;13.10;71.50;;;;;;5045413;28;19940;-82
2023/05/01 07:41:59;;;;;;;;;;;13.10;70.80;;;;;;5050681;28;20283;-83
2023/05/01 07:44:25;;;;;;;;;;;13.10;69.60;;;;;;5057578;28;19909;-82
2023/05/01 07:46:50;;;;;;;;;;;13.20;69.50;;;;;;5053477;28;19948;-82
2023/05/01 07:49:16;;;;;;;;;;;13.30;70.60;;;;;;5037671;28;19957;-83
2023/05/01 07:51:41;;;;;;;;;;;13.50;70.50;;;;;;5044881;28;20332;-82
2023/05/01 07:54:07;;;;;;;;;;;13.50;70.00;;;;;;5059782;28;19951;-82
2023/05/01 07:56:32;;;;;;;;;;;13.60;70.10;;;;;;5055953;28;20352;-82
2023/05/01 07:58:58;;;;;;;;;;;13.80;70.10;;;;;;5035841;28;19990;-82
2023/05/01 08:01:24;;;;;;;;;;;13.90;68.80;;;;;;5040146;28;20283;-82
2023/05/01 08:03:49;;;;;;;;;;;14.00;67.90;;;;;;5035014;28;19917;-82
2023/05/01 08:06:15;;;;;;;;;;;14.00;67.50;;;;;;5039402;28;19913;-82
2023/05/01 08:08:40;;;;;;;;;;;14.10;67.60;;;;;;5039686;28;19913;-82
2023/05/01 08:11:07;;;;;;;;;;;14.10;67.40;;;;;;5039149;28;19924;-82
2023/05/01 08:13:32;;;;;;;;;;;14.20;66.90;;;;;;5025054;28;20427;-82
2023/05/01 08:16:01;;;;;;;;;;;14.40;67.70;;;;;;5019295;28;20012;-82
2023/05/01 08:18:27;;;;;;;;;;;14.40;67.90;;;;;;5033455;28;19922;-82
2023/05/01 08:20:52;;;;;;;;;;;14.50;69.10;;;;;;5054456;28;19909;-83
2023/05/01 08:23:18;;;;;;;;;;;14.80;68.70;;;;;;5060626;28;20011;-82
2023/05/01 08:25:46;;;;;;;;;;;14.90;68.70;;;;;;5058412;28;19909;-82
2023/05/01 08:28:12;;;;;;;;;;;14.90;68.20;;;;;;5046319;28;20021;-82
2023/05/01 08:30:37;;;;;;;;;;;14.80;66.90;;;;;;5046321;28;19909;-82
2023/05/01 08:33:03;;;;;;;;;;;14.80;67.20;;;;;;5047516;28;20001;-82
2023/05/01 08:35:28;;;;;;;;;;;14.90;69.00;;;;;;5067048;28;19909;-82
2023/05/01 08:37:54;;;;;;;;;;;14.80;69.10;;;;;;5050728;28;19935;-82
2023/05/01 08:40:20;;;;;;;;;;;14.90;68.10;;;;;;5040818;28;19917;-82
2023/05/01 08:42:46;;;;;;;;;;;15.00;66.10;;;;;;5038425;28;19920;-82
2023/05/01 08:45:13;;;;;;;;;;;15.20;65.30;;;;;;5038481;28;19917;-82
2023/05/01 08:47:39;;;;;;;;;;;15.40;65.00;;;;;;5042858;28;20549;-82
2023/05/01 08:50:08;;;;;;;;;;;15.60;63.90;;;;;;5052737;28;19909;-82
2023/05/01 08:52:35;;;;;;;;;;;15.80;63.30;;;;;;5065724;28;19913;-82
2023/05/01 08:55:01;;;;;;;;;;;15.70;61.30;;;;;;5071479;28;19913;-82
2023/05/01 08:57:28;;;;;;;;;;;15.70;61.70;;;;;;5052673;28;20520;-82
2023/05/01 08:59:55;;;;;;;;;;;16.00;61.50;;;;;;5038848;28;19909;-82
2023/05/01 09:02:21;;;;;;;;;;;16.00;60.80;;;;;;5039051;28;19920;-82
2023/05/01 09:04:48;;;;;;;;;;;16.30;57.60;;;;;;5042968;28;19912;-82
2023/05/01 09:07:14;;;;;;;;;;;16.40;59.30;;;;;;5058272;28;19955;-82
2023/05/01 09:09:39;;;;;;;;;;;16.50;58.10;;;;;;5059691;28;19909;-82
2023/05/01 09:12:12;;;;;;;;;;;16.50;58.80;;;;;;5047854;28;19913;-82
2023/05/01 09:14:37;;;;;;;;;;;16.50;60.70;;;;;;5037800;28;19923;-82
2023/05/01 09:17:03;;;;;;;;;;;16.60;60.10;;;;;;5036825;28;19909;-82
2023/05/01 09:19:28;;;;;;;;;;;16.60;59.60;;;;;;5047924;28;20296;-82
2023/05/01 09:21:54;;;;;;;;;;;16.80;58.60;;;;;;5039660;28;19913;-82
2023/05/01 09:24:22;;;;;;;;;;;16.80;57.80;;;;;;5036638;28;19913;-82
2023/05/01 09:26:48;;;;;;;;;;;16.80;58.20;;;;;;5038577;28;20285;-82
2023/05/01 09:29:33;;;;;;;;;;;17.10;57.20;;;;;;5039181;28;19913;-82
2023/05/01 09:32:11;;;;;;;;;;;17.20;57.50;;;;;;5044736;28;19923;-82
2023/05/01 09:34:37;;;;;;;;;;;17.20;57.50;;;;;;5041635;28;20020;-82
2023/05/01 09:37:03;;;;;;;;;;;17.30;56.80;;;;;;5037625;28;19952;-82
2023/05/01 09:39:28;;;;;;;;;;;17.20;56.10;;;;;;5038724;28;19916;-81
2023/05/01 09:41:54;;;;;;;;;;;17.30;55.20;;;;;;5037459;28;20003;-82
2023/05/01 09:44:20;;;;;;;;;;;17.30;53.70;;;;;;5034323;28;19913;-82
2023/05/01 09:46:46;;;;;;;;;;;17.20;53.50;;;;;;5038768;28;20055;-81
2023/05/01 09:49:11;;;;;;;;;;;17.30;54.20;;;;;;5035306;28;20456;-82
2023/05/01 09:51:37;;;;;;;;;;;17.60;52.80;;;;;;5037555;28;20448;-83
2023/05/01 09:54:03;;;;;;;;;;;17.50;53.40;;;;;;5035490;28;20008;-82
2023/05/01 09:56:30;;;;;;;;;;;17.80;53.70;;;;;;5036716;28;19916;-81
2023/05/01 09:58:56;;;;;;;;;;;17.90;50.00;;;;;;5028899;28;19913;-82
2023/05/01 10:01:38;;;;;;;;;;;17.90;50.50;;;;;;5034183;28;19966;-82
2023/05/01 10:04:04;;;;;;;;;;;17.90;51.40;;;;;;5028160;28;19928;-82
2023/05/01 10:06:30;;;;;;;;;;;18.10;52.30;;;;;;5033382;28;19909;-82
2023/05/01 10:08:56;;;;;;;;;;;18.10;51.00;;;;;;5035909;28;19920;-82
2023/05/01 10:11:22;;;;;;;;;;;18.10;52.10;;;;;;5033487;28;19917;-82
2023/05/01 10:14:17;;;;;;;;;;;18.20;49.60;;;;;;5027347;28;20361;-82
2023/05/01 10:16:43;;;;;;;;;;;18.20;49.00;;;;;;5013685;28;19913;-82
2023/05/01 10:19:09;;;;;;;;;;;18.20;48.60;;;;;;5035957;28;19928;-82
2023/05/01 10:21:35;;;;;;;;;;;18.40;49.70;;;;;;5038718;28;19941;-82
2023/05/01 10:24:04;;;;;;;;;;;18.30;49.20;;;;;;5036519;28;19939;-82
2023/05/01 10:26:32;;;;;;;;;;;18.50;50.30;;;;;;5042076;28;19952;-82
2023/05/01 10:28:58;;;;;;;;;;;18.70;49.60;;;;;;5038183;28;20326;-82
2023/05/01 10:31:26;;;;;;;;;;;18.80;49.20;;;;;;5034785;28;19977;-82
2023/05/01 10:33:53;;;;;;;;;;;18.70;48.50;;;;;;5019931;28;19948;-81
2023/05/01 10:36:21;;;;;;;;;;;18.70;48.10;;;;;;5043941;28;19920;-81
2023/05/01 10:38:47;;;;;;;;;;;18.70;48.50;;;;;;5063974;28;19909;-81
2023/05/01 10:41:14;;;;;;;;;;;18.80;48.70;;;;;;5046068;28;19914;-82
2023/05/01 10:43:39;;;;;;;;;;;18.90;48.90;;;;;;5028314;28;19976;-82
2023/05/01 10:46:20;;;;;;;;;;;19.00;48.10;;;;;;5033260;28;19913;-83
2023/05/01 10:48:45;;;;;;;;;;;19.00;47.70;;;;;;5039040;28;19909;-83
2023/05/01 10:51:15;;;;;;;;;;;18.80;48.00;;;;;;5044921;28;19917;-83
2023/05/01 10:53:42;;;;;;;;;;;19.00;45.90;;;;;;5048367;28;19976;-82
2023/05/01 10:56:36;;;;;;;;;;;19.10;45.50;;;;;;5043528;28;20459;-82
2023/05/01 10:59:03;;;;;;;;;;;19.10;46.50;;;;;;5056757;28;19944;-83
2023/05/01 11:01:29;;;;;;;;;;;19.10;46.40;;;;;;5061105;28;19935;-82
2023/05/01 11:03:57;;;;;;;;;;;19.10;45.00;;;;;;5060716;28;19908;-83
2023/05/01 11:06:22;;;;;;;;;;;19.10;45.80;;;;;;5060966;28;19915;-82
2023/05/01 11:08:48;;;;;;;;;;;19.10;43.60;;;;;;5042156;28;19913;-82
2023/05/01 11:11:20;;;;;;;;;;;19.00;44.60;;;;;;5042585;28;19975;-83
2023/05/01 11:14:02;;;;;;;;;;;19.00;44.80;;;;;;5038481;28;19945;-82
2023/05/01 11:16:38;;;;;;;;;;;18.90;46.70;;;;;;5022787;28;19916;-82
2023/05/01 11:19:06;;;;;;;;;;;18.90;46.20;;;;;;5025643;28;19917;-83
2023/05/01 11:21:33;;;;;;;;;;;18.90;45.50;;;;;;5025196;28;19913;-82
2023/05/01 11:23:58;;;;;;;;;;;19.00;45.90;;;;;;5027000;28;20373;-82
2023/05/01 11:26:24;;;;;;;;;;;19.00;45.70;;;;;;5026153;28;20004;-82
2023/05/01 11:28:52;;;;;;;;;;;19.10;43.70;;;;;;5053136;28;19932;-82
2023/05/01 11:31:18;;;;;;;;;;;19.10;43.50;;;;;;5036675;28;19933;-83
2023/05/01 11:33:44;;;;;;;;;;;19.30;44.40;;;;;;5050537;28;19999;-83
2023/05/01 11:36:12;;;;;;;;;;;19.40;42.90;;;;;;5044716;28;19935;-83
2023/05/01 11:38:48;;;;;;;;;;;19.40;42.50;;;;;;5042678;28;19913;-83
2023/05/01 11:41:14;;;;;;;;;;;19.50;42.80;;;;;;5045578;28;19932;-83
2023/05/01 11:43:58;;;;;;;;;;;19.80;42.90;;;;;;5044696;28;19913;-83
2023/05/01 11:46:30;;;;;;;;;;;19.90;43.30;;;;;;5039271;28;19913;-84
2023/05/01 11:49:00;;;;;;;;;;;20.10;40.30;;;;;;5057506;28;19909;-83
2023/05/01 11:51:26;;;;;;;;;;;20.10;40.60;;;;;;5044558;28;20022;-81
2023/05/01 11:53:59;;;;;;;;;;;20.10;41.40;;;;;;5040253;28;19917;-83
2023/05/01 11:56:25;;;;;;;;;;;19.90;41.70;;;;;;5037521;28;19909;-84
2023/05/01 11:58:50;;;;;;;;;;;20.00;43.50;;;;;;5042261;28;19927;-83
2023/05/01 12:01:16;;;;;;;;;;;20.10;41.40;;;;;;5042103;28;19988;-82
2023/05/01 12:03:42;;;;;;;;;;;20.00;42.40;;;;;;5049207;28;19975;-82
2023/05/01 12:06:08;;;;;;;;;;;20.10;40.90;;;;;;5049167;28;19933;-82
2023/05/01 12:08:34;;;;;;;;;;;19.90;41.00;;;;;;5046031;28;20405;-81
2023/05/01 12:11:00;;;;;;;;;;;20.00;41.50;;;;;;5040708;28;19909;-82
2023/05/01 12:13:25;;;;;;;;;;;19.90;41.60;;;;;;5028987;28;19917;-82
2023/05/01 12:15:52;;;;;;;;;;;19.80;41.20;;;;;;5028098;28;19921;-82
2023/05/01 12:18:18;;;;;;;;;;;19.70;43.00;;;;;;5035742;28;19918;-81
2023/05/01 12:20:45;;;;;;;;;;;19.60;42.10;;;;;;5037063;28;19940;-82
2023/05/01 12:23:11;;;;;;;;;;;19.60;42.00;;;;;;5037514;28;19995;-82
2023/05/01 12:25:38;;;;;;;;;;;19.70;41.00;;;;;;5031818;28;20398;-82
2023/05/01 12:28:22;;;;;;;;;;;19.50;42.10;;;;;;5029573;28;19937;-82
2023/05/01 12:30:50;;;;;;;;;;;19.50;42.70;;;;;;5037511;28;19921;-82
2023/05/01 12:33:17;;;;;;;;;;;19.50;42.40;;;;;;5028594;28;19921;-82
2023/05/01 12:35:46;;;;;;;;;;;19.50;42.80;;;;;;5028691;28;19917;-82
2023/05/01 12:38:15;;;;;;;;;;;19.30;42.60;;;;;;5033982;28;19920;-82
2023/05/01 12:40:55;;;;;;;;;;;19.30;43.30;;;;;;5029705;28;19980;-82
2023/05/01 12:43:30;;;;;;;;;;;19.30;43.10;;;;;;5035460;28;19948;-82
2023/05/01 12:45:55;;;;;;;;;;;19.30;44.20;;;;;;5031651;28;20083;-82
2023/05/01 12:48:21;;;;;;;;;;;19.30;43.90;;;;;;5032647;28;20288;-82
2023/05/01 12:50:53;;;;;;;;;;;19.40;43.40;;;;;;5031196;28;20265;-82
2023/05/01 12:53:19;;;;;;;;;;;19.20;45.40;;;;;;5028075;28;19925;-82
2023/05/01 12:55:46;;;;;;;;;;;19.00;45.50;;;;;;5043353;28;19951;-82
2023/05/01 12:58:12;;;;;;;;;;;19.00;45.50;;;;;;5027800;28;19981;-82
2023/05/01 13:00:45;;;;;;;;;;;18.90;46.10;;;;;;5027790;28;19992;-82
2023/05/01 13:03:11;;;;;;;;;;;19.00;44.90;;;;;;5028985;28;19928;-82
2023/05/01 13:05:48;;;;;;;;;;;18.90;45.90;;;;;;5023336;28;19976;-82
2023/05/01 13:08:13;;;;;;;;;;;19.00;45.30;;;;;;5025511;28;20696;-82
2023/05/01 13:10:39;;;;;;;;;;;18.90;45.90;;;;;;5026699;28;19959;-82
2023/05/01 13:13:05;;;;;;;;;;;19.00;46.20;;;;;;5028842;28;19913;-82
2023/05/01 13:15:31;;;;;;;;;;;19.00;45.50;;;;;;5023551;28;19924;-82
2023/05/01 13:18:02;;;;;;;;;;;19.20;44.00;;;;;;5032336;28;19913;-82
2023/05/01 13:20:27;;;;;;;;;;;19.40;43.70;;;;;;5035730;28;19920;-81
2023/05/01 13:22:53;;;;;;;;;;;19.60;43.40;;;;;;5033936;28;20415;-80
2023/05/01 13:25:22;;;;;;;;;;;19.50;43.70;;;;;;5042293;28;19917;-80
2023/05/01 13:27:48;;;;;;;;;;;19.40;44.80;;;;;;5033834;28;19913;-80
2023/05/01 13:30:15;;;;;;;;;;;19.30;42.80;;;;;;5039233;28;19913;-80
2023/05/01 13:32:41;;;;;;;;;;;19.30;42.90;;;;;;5029435;28;19913;-80
2023/05/01 13:35:07;;;;;;;;;;;19.10;44.00;;;;;;5021699;28;19928;-80
2023/05/01 13:37:33;;;;;;;;;;;19.10;43.60;;;;;;5034525;28;19964;-81
2023/05/01 13:39:59;;;;;;;;;;;19.10;44.30;;;;;;5037546;28;19969;-81
2023/05/01 13:42:24;;;;;;;;;;;19.10;44.80;;;;;;5031947;28;20328;-80
2023/05/01 13:44:51;;;;;;;;;;;19.10;45.50;;;;;;5036277;28;20007;-79
2023/05/01 13:47:54;;;;;;;;;;;19.20;44.70;;;;;;5092182;22;19971;-80
2023/05/01 13:50:51;;;;;;;;;;;19.30;44.00;;;;;;5047711;28;20295;-80
2023/05/01 13:53:34;;;;;;;;;;;19.40;43.90;;;;;;5033366;28;20013;-80
2023/05/01 14:04:12;;;;;;;;;;;19.50;44.20;;;;;;3053739;23;20404;-80
2023/05/01 14:07:04;;;;;;;;;;;;;;;;;;;;;
2023/05/01 14:10:18;;;;;;;;;;;;;;;;;;;;;
2023/05/01 14:13:12;;;;;;;;;;;19.50;43.70;;;;;;4992501;28;20000;-80
2023/05/01 14:22:31;;;;;;;;;;;19.90;44.40;;;;;;5001660;28;19921;-82
2023/05/01 14:24:57;;;;;;;;;;;20.00;43.70;;;;;;5019368;28;19909;-79
2023/05/01 14:27:22;;;;;;;;;;;20.10;42.90;;;;;;4999925;28;19914;-79
2023/05/01 14:29:48;;;;;;;;;;;20.10;42.30;;;;;;5006244;28;20412;-78
2023/05/01 14:32:14;;;;;;;;;;;20.10;43.10;;;;;;5002729;28;19917;-78
2023/05/01 14:34:41;;;;;;;;;;;20.30;41.80;;;;;;4999131;28;20423;-78
2023/05/01 14:37:07;;;;;;;;;;;20.30;41.30;;;;;;5006830;28;19917;-78
2023/05/01 14:39:33;;;;;;;;;;;20.40;41.30;;;;;;5013339;28;19972;-79
2023/05/01 14:41:58;;;;;;;;;;;20.50;41.20;;;;;;4991223;28;19914;-78
2023/05/01 14:44:25;;;;;;;;;;;20.40;39.40;;;;;;5006215;28;19946;-78
2023/05/01 14:46:51;;;;;;;;;;;20.30;39.70;;;;;;5005930;28;20020;-79
2023/05/01 14:49:18;;;;;;;;;;;20.30;40.30;;;;;;5009751;28;19953;-78
2023/05/01 14:51:43;;;;;;;;;;;20.40;39.30;;;;;;5010167;28;19980;-79
2023/05/01 14:54:10;;;;;;;;;;;20.40;39.60;;;;;;5017268;28;19926;-78
2023/05/01 14:56:36;;;;;;;;;;;20.20;40.20;;;;;;5010657;28;19917;-79
2023/05/01 14:59:01;;;;;;;;;;;20.10;40.40;;;;;;5009693;28;19914;-79
2023/05/01 15:01:27;;;;;;;;;;;19.90;41.00;;;;;;5010682;28;19913;-78
2023/05/01 15:03:53;;;;;;;;;;;19.80;40.20;;;;;;5009561;28;20261;-79